sensor_id;sensor_type;location;lat;lon;timestamp;P1;durP1;ratioP1;P2;durP2;ratioP2
77938;SDS011;67136;47.546;21.630;2023-05-16T00:00:14;13.15;;;8.05;;
77938;SDS011;67136;47.546;21.630;2023-05-16T00:03:39;11.80;;;8.20;;
77938;SDS011;67136;47.546;21.630;2023-05-16T00:06:56;13.88;;;8.43;;
77938;SDS011;67136;47.546;21.630;2023-05-16T00:10:13;12.00;;;8.17;;
77938;SDS011;67136;47.546;21.630;2023-05-16T00:13:35;14.43;;;8.67;;
77938;SDS011;67136;47.546;21.630;2023-05-16T00:17:03;13.55;;;8.38;;
77938;SDS011;67136;47.546;21.630;2023-05-16T00:20:39;17.73;;;8.43;;
77938;SDS011;67136;47.546;21.630;2023-05-16T00:23:56;12.77;;;8.63;;
77938;SDS011;67136;47.546;21.630;2023-05-16T00:27:16;13.30;;;8.13;;
77938;SDS011;67136;47.546;21.630;2023-05-16T00:30:26;12.43;;;8.37;;
77938;SDS011;67136;47.546;21.630;2023-05-16T00:33:35;11.85;;;8.02;;
77938;SDS011;67136;47.546;21.630;2023-05-16T00:36:54;12.00;;;8.23;;
77938;SDS011;67136;47.546;21.630;2023-05-16T00:40:05;13.98;;;9.20;;
77938;SDS011;67136;47.546;21.630;2023-05-16T00:43:21;15.90;;;8.80;;
77938;SDS011;67136;47.546;21.630;2023-05-16T00:46:55;14.20;;;8.90;;
77938;SDS011;67136;47.546;21.630;2023-05-16T00:50:12;14.93;;;9.18;;
77938;SDS011;67136;47.546;21.630;2023-05-16T00:53:30;17.85;;;9.85;;
77938;SDS011;67136;47.546;21.630;2023-05-16T00:56:34;16.87;;;9.52;;
77938;SDS011;67136;47.546;21.630;2023-05-16T01:00:27;16.63;;;9.47;;
77938;SDS011;67136;47.546;21.630;2023-05-16T01:03:54;14.23;;;9.37;;
77938;SDS011;67136;47.546;21.630;2023-05-16T01:07:34;18.40;;;9.63;;
77938;SDS011;67136;47.546;21.630;2023-05-16T01:11:35;16.83;;;9.55;;
77938;SDS011;67136;47.546;21.630;2023-05-16T01:22:10;16.17;;;9.97;;
77938;SDS011;67136;47.546;21.630;2023-05-16T01:25:44;17.08;;;9.35;;
77938;SDS011;67136;47.546;21.630;2023-05-16T01:29:39;18.37;;;10.23;;
77938;SDS011;67136;47.546;21.630;2023-05-16T01:33:16;20.12;;;11.00;;
77938;SDS011;67136;47.546;21.630;2023-05-16T01:39:58;19.03;;;11.10;;
77938;SDS011;67136;47.546;21.630;2023-05-16T01:43:16;17.95;;;11.05;;
77938;SDS011;67136;47.546;21.630;2023-05-16T01:46:32;18.77;;;11.32;;
77938;SDS011;67136;47.546;21.630;2023-05-16T01:53:32;20.20;;;11.57;;
77938;SDS011;67136;47.546;21.630;2023-05-16T01:57:10;19.23;;;11.10;;
77938;SDS011;67136;47.546;21.630;2023-05-16T02:00:49;19.00;;;11.43;;
77938;SDS011;67136;47.546;21.630;2023-05-16T02:04:02;21.17;;;11.50;;
77938;SDS011;67136;47.546;21.630;2023-05-16T02:07:33;20.60;;;10.77;;
77938;SDS011;67136;47.546;21.630;2023-05-16T02:10:57;17.50;;;10.00;;
77938;SDS011;67136;47.546;21.630;2023-05-16T02:14:05;19.83;;;10.63;;
77938;SDS011;67136;47.546;21.630;2023-05-16T02:17:28;18.77;;;10.98;;
77938;SDS011;67136;47.546;21.630;2023-05-16T02:20:52;18.92;;;11.05;;
77938;SDS011;67136;47.546;21.630;2023-05-16T02:24:12;19.15;;;10.80;;
77938;SDS011;67136;47.546;21.630;2023-05-16T02:27:39;17.93;;;10.80;;
77938;SDS011;67136;47.546;21.630;2023-05-16T02:31:05;24.77;;;10.53;;
77938;SDS011;67136;47.546;21.630;2023-05-16T02:34:20;20.92;;;11.12;;
77938;SDS011;67136;47.546;21.630;2023-05-16T02:37:39;21.30;;;11.25;;
77938;SDS011;67136;47.546;21.630;2023-05-16T02:40:58;21.00;;;11.15;;
77938;SDS011;67136;47.546;21.630;2023-05-16T02:44:30;17.73;;;9.70;;
77938;SDS011;67136;47.546;21.630;2023-05-16T02:48:25;21.27;;;11.07;;
77938;SDS011;67136;47.546;21.630;2023-05-16T02:52:00;20.85;;;9.88;;
77938;SDS011;67136;47.546;21.630;2023-05-16T02:55:19;23.85;;;11.18;;
77938;SDS011;67136;47.546;21.630;2023-05-16T02:58:58;23.12;;;11.63;;
77938;SDS011;67136;47.546;21.630;2023-05-16T03:02:12;22.07;;;11.07;;
77938;SDS011;67136;47.546;21.630;2023-05-16T03:05:46;18.77;;;10.37;;
77938;SDS011;67136;47.546;21.630;2023-05-16T03:09:33;22.00;;;10.70;;
77938;SDS011;67136;47.546;21.630;2023-05-16T03:12:43;24.92;;;11.07;;
77938;SDS011;67136;47.546;21.630;2023-05-16T03:16:22;21.67;;;11.23;;
77938;SDS011;67136;47.546;21.630;2023-05-16T03:19:43;22.63;;;10.40;;
77938;SDS011;67136;47.546;21.630;2023-05-16T03:23:18;23.27;;;11.27;;
77938;SDS011;67136;47.546;21.630;2023-05-16T03:26:33;25.58;;;11.25;;
77938;SDS011;67136;47.546;21.630;2023-05-16T03:30:17;22.23;;;10.98;;
77938;SDS011;67136;47.546;21.630;2023-05-16T03:33:39;21.62;;;10.55;;
77938;SDS011;67136;47.546;21.630;2023-05-16T03:37:09;21.90;;;10.67;;
77938;SDS011;67136;47.546;21.630;2023-05-16T03:40:32;20.43;;;11.00;;
77938;SDS011;67136;47.546;21.630;2023-05-16T03:43:49;20.15;;;9.85;;
77938;SDS011;67136;47.546;21.630;2023-05-16T03:47:34;18.33;;;9.50;;
77938;SDS011;67136;47.546;21.630;2023-05-16T03:50:41;17.83;;;9.70;;
77938;SDS011;67136;47.546;21.630;2023-05-16T03:54:08;15.87;;;9.33;;
77938;SDS011;67136;47.546;21.630;2023-05-16T03:57:25;15.37;;;9.00;;
77938;SDS011;67136;47.546;21.630;2023-05-16T04:01:22;16.80;;;9.13;;
77938;SDS011;67136;47.546;21.630;2023-05-16T04:08:28;17.35;;;9.25;;
77938;SDS011;67136;47.546;21.630;2023-05-16T04:12:02;17.40;;;9.00;;
77938;SDS011;67136;47.546;21.630;2023-05-16T04:15:26;15.40;;;9.47;;
77938;SDS011;67136;47.546;21.630;2023-05-16T04:18:45;17.10;;;9.48;;
77938;SDS011;67136;47.546;21.630;2023-05-16T04:22:06;21.27;;;10.27;;
77938;SDS011;67136;47.546;21.630;2023-05-16T04:25:29;18.33;;;10.25;;
77938;SDS011;67136;47.546;21.630;2023-05-16T04:28:58;17.23;;;10.00;;
77938;SDS011;67136;47.546;21.630;2023-05-16T04:32:07;16.30;;;9.57;;
77938;SDS011;67136;47.546;21.630;2023-05-16T04:35:25;18.10;;;10.13;;
77938;SDS011;67136;47.546;21.630;2023-05-16T04:38:39;15.45;;;9.65;;
77938;SDS011;67136;47.546;21.630;2023-05-16T04:41:53;18.95;;;10.02;;
77938;SDS011;67136;47.546;21.630;2023-05-16T04:45:18;18.03;;;10.13;;
77938;SDS011;67136;47.546;21.630;2023-05-16T04:49:18;23.93;;;9.97;;
77938;SDS011;67136;47.546;21.630;2023-05-16T04:52:33;17.60;;;10.02;;
77938;SDS011;67136;47.546;21.630;2023-05-16T04:55:56;18.62;;;10.25;;
77938;SDS011;67136;47.546;21.630;2023-05-16T04:59:10;18.08;;;10.02;;
77938;SDS011;67136;47.546;21.630;2023-05-16T05:02:26;19.73;;;9.87;;
77938;SDS011;67136;47.546;21.630;2023-05-16T05:06:04;20.93;;;10.87;;
77938;SDS011;67136;47.546;21.630;2023-05-16T05:09:30;17.83;;;10.30;;
77938;SDS011;67136;47.546;21.630;2023-05-16T05:12:59;17.77;;;10.35;;
77938;SDS011;67136;47.546;21.630;2023-05-16T05:16:28;19.58;;;10.15;;
77938;SDS011;67136;47.546;21.630;2023-05-16T05:19:54;17.67;;;10.67;;
77938;SDS011;67136;47.546;21.630;2023-05-16T05:23:15;19.40;;;10.43;;
77938;SDS011;67136;47.546;21.630;2023-05-16T05:26:29;15.02;;;9.75;;
77938;SDS011;67136;47.546;21.630;2023-05-16T05:29:50;16.35;;;9.32;;
77938;SDS011;67136;47.546;21.630;2023-05-16T05:33:25;15.10;;;9.55;;
77938;SDS011;67136;47.546;21.630;2023-05-16T05:36:48;18.30;;;9.30;;
77938;SDS011;67136;47.546;21.630;2023-05-16T05:40:17;13.77;;;8.43;;
77938;SDS011;67136;47.546;21.630;2023-05-16T05:43:31;14.82;;;9.00;;
77938;SDS011;67136;47.546;21.630;2023-05-16T05:46:53;14.45;;;8.15;;
77938;SDS011;67136;47.546;21.630;2023-05-16T05:50:39;13.52;;;8.20;;
77938;SDS011;67136;47.546;21.630;2023-05-16T05:54:10;12.73;;;8.47;;
77938;SDS011;67136;47.546;21.630;2023-05-16T05:57:47;16.60;;;9.13;;
77938;SDS011;67136;47.546;21.630;2023-05-16T06:01:01;14.20;;;8.35;;
77938;SDS011;67136;47.546;21.630;2023-05-16T06:04:20;14.57;;;8.80;;
77938;SDS011;67136;47.546;21.630;2023-05-16T06:07:48;12.88;;;7.82;;
77938;SDS011;67136;47.546;21.630;2023-05-16T06:10:51;12.33;;;8.60;;
77938;SDS011;67136;47.546;21.630;2023-05-16T06:14:01;16.40;;;8.23;;
77938;SDS011;67136;47.546;21.630;2023-05-16T06:17:10;17.62;;;8.50;;
77938;SDS011;67136;47.546;21.630;2023-05-16T06:20:15;17.40;;;8.35;;
77938;SDS011;67136;47.546;21.630;2023-05-16T06:23:28;16.33;;;8.65;;
77938;SDS011;67136;47.546;21.630;2023-05-16T06:26:44;13.90;;;8.35;;
77938;SDS011;67136;47.546;21.630;2023-05-16T06:29:59;30.93;;;8.60;;
77938;SDS011;67136;47.546;21.630;2023-05-16T06:33:08;14.02;;;8.40;;
77938;SDS011;67136;47.546;21.630;2023-05-16T06:36:22;15.38;;;8.13;;
77938;SDS011;67136;47.546;21.630;2023-05-16T06:39:36;16.77;;;8.52;;
77938;SDS011;67136;47.546;21.630;2023-05-16T06:42:46;18.23;;;9.32;;
77938;SDS011;67136;47.546;21.630;2023-05-16T06:46:00;17.20;;;9.20;;
77938;SDS011;67136;47.546;21.630;2023-05-16T06:49:09;16.27;;;9.13;;
77938;SDS011;67136;47.546;21.630;2023-05-16T06:52:16;17.35;;;9.38;;
77938;SDS011;67136;47.546;21.630;2023-05-16T06:55:24;14.13;;;7.72;;
77938;SDS011;67136;47.546;21.630;2023-05-16T06:58:35;15.60;;;8.38;;
77938;SDS011;67136;47.546;21.630;2023-05-16T07:02:03;13.97;;;7.83;;
77938;SDS011;67136;47.546;21.630;2023-05-16T07:05:18;16.30;;;8.10;;
77938;SDS011;67136;47.546;21.630;2023-05-16T07:08:37;12.95;;;7.30;;
77938;SDS011;67136;47.546;21.630;2023-05-16T07:11:43;15.90;;;7.80;;
77938;SDS011;67136;47.546;21.630;2023-05-16T07:14:52;12.55;;;7.47;;
77938;SDS011;67136;47.546;21.630;2023-05-16T07:17:56;12.47;;;7.90;;
77938;SDS011;67136;47.546;21.630;2023-05-16T07:21:11;14.20;;;7.25;;
77938;SDS011;67136;47.546;21.630;2023-05-16T07:24:16;14.48;;;7.07;;
77938;SDS011;67136;47.546;21.630;2023-05-16T07:27:21;15.32;;;7.65;;
77938;SDS011;67136;47.546;21.630;2023-05-16T07:30:33;11.25;;;7.12;;
77938;SDS011;67136;47.546;21.630;2023-05-16T07:33:38;14.67;;;7.83;;
77938;SDS011;67136;47.546;21.630;2023-05-16T07:36:48;13.75;;;6.78;;
77938;SDS011;67136;47.546;21.630;2023-05-16T07:39:54;12.48;;;7.28;;
77938;SDS011;67136;47.546;21.630;2023-05-16T07:43:03;14.18;;;7.87;;
77938;SDS011;67136;47.546;21.630;2023-05-16T07:46:10;13.55;;;7.60;;
77938;SDS011;67136;47.546;21.630;2023-05-16T07:49:18;14.53;;;7.73;;
77938;SDS011;67136;47.546;21.630;2023-05-16T07:52:24;13.80;;;7.80;;
77938;SDS011;67136;47.546;21.630;2023-05-16T07:55:27;10.20;;;7.00;;
77938;SDS011;67136;47.546;21.630;2023-05-16T07:58:47;13.95;;;7.30;;
77938;SDS011;67136;47.546;21.630;2023-05-16T08:01:55;16.40;;;7.57;;
77938;SDS011;67136;47.546;21.630;2023-05-16T08:05:04;11.77;;;6.93;;
77938;SDS011;67136;47.546;21.630;2023-05-16T08:08:07;13.48;;;6.93;;
77938;SDS011;67136;47.546;21.630;2023-05-16T08:11:15;13.75;;;6.85;;
77938;SDS011;67136;47.546;21.630;2023-05-16T08:14:20;12.77;;;6.65;;
77938;SDS011;67136;47.546;21.630;2023-05-16T08:17:36;16.80;;;6.50;;
77938;SDS011;67136;47.546;21.630;2023-05-16T08:20:44;13.37;;;6.87;;
77938;SDS011;67136;47.546;21.630;2023-05-16T08:23:51;13.57;;;6.28;;
77938;SDS011;67136;47.546;21.630;2023-05-16T08:27:00;17.23;;;7.10;;
77938;SDS011;67136;47.546;21.630;2023-05-16T08:30:06;10.05;;;6.05;;
77938;SDS011;67136;47.546;21.630;2023-05-16T08:33:17;13.30;;;6.30;;
77938;SDS011;67136;47.546;21.630;2023-05-16T08:36:30;12.60;;;5.70;;
77938;SDS011;67136;47.546;21.630;2023-05-16T08:39:38;10.35;;;6.00;;
77938;SDS011;67136;47.546;21.630;2023-05-16T08:42:59;12.43;;;6.07;;
77938;SDS011;67136;47.546;21.630;2023-05-16T08:46:03;10.48;;;5.72;;
77938;SDS011;67136;47.546;21.630;2023-05-16T08:49:12;9.15;;;6.28;;
77938;SDS011;67136;47.546;21.630;2023-05-16T08:52:19;12.93;;;6.10;;
77938;SDS011;67136;47.546;21.630;2023-05-16T08:55:26;9.35;;;5.62;;
77938;SDS011;67136;47.546;21.630;2023-05-16T08:58:48;15.48;;;5.93;;
77938;SDS011;67136;47.546;21.630;2023-05-16T09:02:11;10.90;;;6.10;;
77938;SDS011;67136;47.546;21.630;2023-05-16T09:05:23;9.85;;;5.62;;
77938;SDS011;67136;47.546;21.630;2023-05-16T09:08:37;13.93;;;6.10;;
77938;SDS011;67136;47.546;21.630;2023-05-16T09:11:47;14.18;;;5.62;;
77938;SDS011;67136;47.546;21.630;2023-05-16T09:14:52;15.55;;;6.55;;
77938;SDS011;67136;47.546;21.630;2023-05-16T09:18:21;9.68;;;5.82;;
77938;SDS011;67136;47.546;21.630;2023-05-16T09:21:34;14.02;;;6.00;;
77938;SDS011;67136;47.546;21.630;2023-05-16T09:25:05;11.27;;;5.83;;
77938;SDS011;67136;47.546;21.630;2023-05-16T09:28:19;10.70;;;5.45;;
77938;SDS011;67136;47.546;21.630;2023-05-16T09:31:27;11.35;;;5.60;;
77938;SDS011;67136;47.546;21.630;2023-05-16T09:34:45;11.10;;;5.95;;
77938;SDS011;67136;47.546;21.630;2023-05-16T09:37:54;11.02;;;5.60;;
77938;SDS011;67136;47.546;21.630;2023-05-16T09:41:02;12.43;;;5.80;;
77938;SDS011;67136;47.546;21.630;2023-05-16T09:44:28;8.75;;;5.47;;
77938;SDS011;67136;47.546;21.630;2023-05-16T09:47:38;10.10;;;6.43;;
77938;SDS011;67136;47.546;21.630;2023-05-16T09:50:50;14.30;;;6.43;;
77938;SDS011;67136;47.546;21.630;2023-05-16T09:54:14;15.20;;;5.80;;
77938;SDS011;67136;47.546;21.630;2023-05-16T09:57:31;13.90;;;6.60;;
77938;SDS011;67136;47.546;21.630;2023-05-16T10:00:51;14.85;;;6.32;;
77938;SDS011;67136;47.546;21.630;2023-05-16T10:04:08;14.70;;;6.72;;
77938;SDS011;67136;47.546;21.630;2023-05-16T10:07:21;13.10;;;6.75;;
77938;SDS011;67136;47.546;21.630;2023-05-16T10:10:33;12.18;;;6.65;;
77938;SDS011;67136;47.546;21.630;2023-05-16T10:14:04;14.77;;;6.87;;
77938;SDS011;67136;47.546;21.630;2023-05-16T10:17:37;13.05;;;7.15;;
77938;SDS011;67136;47.546;21.630;2023-05-16T10:21:15;19.27;;;7.37;;
77938;SDS011;67136;47.546;21.630;2023-05-16T10:28:41;16.25;;;7.37;;
77938;SDS011;67136;47.546;21.630;2023-05-16T10:31:56;14.47;;;7.47;;
77938;SDS011;67136;47.546;21.630;2023-05-16T10:35:18;13.27;;;6.93;;
77938;SDS011;67136;47.546;21.630;2023-05-16T10:38:40;14.85;;;8.18;;
77938;SDS011;67136;47.546;21.630;2023-05-16T10:42:02;15.60;;;7.40;;
77938;SDS011;67136;47.546;21.630;2023-05-16T10:45:21;12.37;;;6.80;;
77938;SDS011;67136;47.546;21.630;2023-05-16T10:51:35;14.60;;;7.70;;
77938;SDS011;67136;47.546;21.630;2023-05-16T10:54:48;17.60;;;7.57;;
77938;SDS011;67136;47.546;21.630;2023-05-16T10:58:06;14.27;;;7.43;;
77938;SDS011;67136;47.546;21.630;2023-05-16T11:01:19;16.83;;;6.45;;
77938;SDS011;67136;47.546;21.630;2023-05-16T11:04:48;14.30;;;6.87;;
77938;SDS011;67136;47.546;21.630;2023-05-16T11:08:02;14.68;;;6.47;;
77938;SDS011;67136;47.546;21.630;2023-05-16T11:15:27;10.73;;;5.85;;
77938;SDS011;67136;47.546;21.630;2023-05-16T11:18:33;14.60;;;6.30;;
77938;SDS011;67136;47.546;21.630;2023-05-16T11:25:19;11.23;;;6.18;;
77938;SDS011;67136;47.546;21.630;2023-05-16T11:28:42;12.55;;;6.45;;
77938;SDS011;67136;47.546;21.630;2023-05-16T11:31:45;12.57;;;5.97;;
77938;SDS011;67136;47.546;21.630;2023-05-16T11:34:49;17.08;;;7.53;;
77938;SDS011;67136;47.546;21.630;2023-05-16T11:37:57;11.53;;;5.63;;
77938;SDS011;67136;47.546;21.630;2023-05-16T11:41:08;13.80;;;6.55;;
77938;SDS011;67136;47.546;21.630;2023-05-16T11:44:12;11.05;;;5.97;;
77938;SDS011;67136;47.546;21.630;2023-05-16T11:47:14;14.63;;;5.55;;
77938;SDS011;67136;47.546;21.630;2023-05-16T11:50:18;12.80;;;6.10;;
77938;SDS011;67136;47.546;21.630;2023-05-16T11:53:23;13.63;;;5.93;;
77938;SDS011;67136;47.546;21.630;2023-05-16T11:56:28;11.93;;;6.30;;
77938;SDS011;67136;47.546;21.630;2023-05-16T11:59:31;9.82;;;5.43;;
77938;SDS011;67136;47.546;21.630;2023-05-16T12:02:34;12.43;;;5.57;;
77938;SDS011;67136;47.546;21.630;2023-05-16T12:05:39;13.75;;;6.40;;
77938;SDS011;67136;47.546;21.630;2023-05-16T12:08:54;15.27;;;6.53;;
77938;SDS011;67136;47.546;21.630;2023-05-16T12:11:57;12.73;;;7.00;;
77938;SDS011;67136;47.546;21.630;2023-05-16T12:15:08;13.13;;;6.47;;
77938;SDS011;67136;47.546;21.630;2023-05-16T12:18:12;11.98;;;6.03;;
77938;SDS011;67136;47.546;21.630;2023-05-16T12:21:16;13.82;;;6.62;;
77938;SDS011;67136;47.546;21.630;2023-05-16T12:24:19;15.37;;;6.40;;
77938;SDS011;67136;47.546;21.630;2023-05-16T12:27:29;13.90;;;6.70;;
77938;SDS011;67136;47.546;21.630;2023-05-16T12:30:48;14.90;;;5.90;;
77938;SDS011;67136;47.546;21.630;2023-05-16T12:33:53;13.90;;;6.35;;
77938;SDS011;67136;47.546;21.630;2023-05-16T12:36:56;12.73;;;6.28;;
77938;SDS011;67136;47.546;21.630;2023-05-16T12:40:00;14.50;;;6.40;;
77938;SDS011;67136;47.546;21.630;2023-05-16T12:43:15;14.63;;;6.22;;
77938;SDS011;67136;47.546;21.630;2023-05-16T12:46:24;14.57;;;6.53;;
77938;SDS011;67136;47.546;21.630;2023-05-16T12:49:27;11.15;;;6.47;;
77938;SDS011;67136;47.546;21.630;2023-05-16T12:52:30;16.05;;;6.60;;
77938;SDS011;67136;47.546;21.630;2023-05-16T12:55:36;12.30;;;6.33;;
77938;SDS011;67136;47.546;21.630;2023-05-16T12:58:41;14.23;;;6.60;;
77938;SDS011;67136;47.546;21.630;2023-05-16T13:01:44;15.27;;;5.97;;
77938;SDS011;67136;47.546;21.630;2023-05-16T13:04:47;14.57;;;5.80;;
77938;SDS011;67136;47.546;21.630;2023-05-16T13:07:50;17.73;;;6.20;;
77938;SDS011;67136;47.546;21.630;2023-05-16T13:10:52;13.23;;;6.07;;
77938;SDS011;67136;47.546;21.630;2023-05-16T13:13:55;14.77;;;5.80;;
77938;SDS011;67136;47.546;21.630;2023-05-16T13:16:58;14.50;;;6.93;;
77938;SDS011;67136;47.546;21.630;2023-05-16T13:20:01;15.75;;;6.20;;
77938;SDS011;67136;47.546;21.630;2023-05-16T13:23:09;12.40;;;5.87;;
77938;SDS011;67136;47.546;21.630;2023-05-16T13:26:12;15.63;;;6.13;;
77938;SDS011;67136;47.546;21.630;2023-05-16T13:29:15;14.85;;;5.90;;
77938;SDS011;67136;47.546;21.630;2023-05-16T13:32:18;12.18;;;5.28;;
77938;SDS011;67136;47.546;21.630;2023-05-16T13:35:20;14.95;;;6.30;;
77938;SDS011;67136;47.546;21.630;2023-05-16T13:38:26;15.90;;;5.65;;
77938;SDS011;67136;47.546;21.630;2023-05-16T13:41:28;18.10;;;5.97;;
77938;SDS011;67136;47.546;21.630;2023-05-16T13:44:31;10.15;;;5.28;;
77938;SDS011;67136;47.546;21.630;2023-05-16T13:47:34;13.45;;;5.95;;
77938;SDS011;67136;47.546;21.630;2023-05-16T13:50:38;12.52;;;5.18;;
77938;SDS011;67136;47.546;21.630;2023-05-16T13:53:45;12.48;;;5.37;;
77938;SDS011;67136;47.546;21.630;2023-05-16T13:56:48;14.60;;;5.83;;
77938;SDS011;67136;47.546;21.630;2023-05-16T13:59:50;14.02;;;5.60;;
77938;SDS011;67136;47.546;21.630;2023-05-16T14:02:56;12.70;;;5.28;;
77938;SDS011;67136;47.546;21.630;2023-05-16T14:05:59;11.38;;;5.60;;
77938;SDS011;67136;47.546;21.630;2023-05-16T14:09:02;11.18;;;5.28;;
77938;SDS011;67136;47.546;21.630;2023-05-16T14:12:10;8.90;;;5.17;;
77938;SDS011;67136;47.546;21.630;2023-05-16T14:15:13;11.10;;;5.15;;
77938;SDS011;67136;47.546;21.630;2023-05-16T14:18:18;16.25;;;4.90;;
77938;SDS011;67136;47.546;21.630;2023-05-16T14:21:21;10.75;;;5.00;;
77938;SDS011;67136;47.546;21.630;2023-05-16T14:24:24;11.85;;;4.70;;
77938;SDS011;67136;47.546;21.630;2023-05-16T14:27:26;14.07;;;4.60;;
77938;SDS011;67136;47.546;21.630;2023-05-16T14:30:34;12.93;;;4.87;;
77938;SDS011;67136;47.546;21.630;2023-05-16T14:33:38;11.85;;;4.80;;
77938;SDS011;67136;47.546;21.630;2023-05-16T14:36:42;12.73;;;4.50;;
77938;SDS011;67136;47.546;21.630;2023-05-16T14:39:45;16.98;;;5.10;;
77938;SDS011;67136;47.546;21.630;2023-05-16T14:42:55;10.83;;;4.23;;
77938;SDS011;67136;47.546;21.630;2023-05-16T14:45:58;11.57;;;4.30;;
77938;SDS011;67136;47.546;21.630;2023-05-16T14:49:03;12.73;;;4.53;;
77938;SDS011;67136;47.546;21.630;2023-05-16T14:52:05;12.37;;;3.97;;
77938;SDS011;67136;47.546;21.630;2023-05-16T14:55:08;6.53;;;3.80;;
77938;SDS011;67136;47.546;21.630;2023-05-16T14:58:14;9.97;;;4.30;;
77938;SDS011;67136;47.546;21.630;2023-05-16T15:01:18;11.15;;;3.70;;
77938;SDS011;67136;47.546;21.630;2023-05-16T15:04:21;14.80;;;4.30;;
77938;SDS011;67136;47.546;21.630;2023-05-16T15:07:24;13.10;;;4.07;;
77938;SDS011;67136;47.546;21.630;2023-05-16T15:10:29;9.13;;;3.78;;
77938;SDS011;67136;47.546;21.630;2023-05-16T15:13:32;15.60;;;4.17;;
77938;SDS011;67136;47.546;21.630;2023-05-16T15:16:36;16.35;;;4.10;;
77938;SDS011;67136;47.546;21.630;2023-05-16T15:19:42;11.43;;;3.67;;
77938;SDS011;67136;47.546;21.630;2023-05-16T15:22:47;11.20;;;4.00;;
77938;SDS011;67136;47.546;21.630;2023-05-16T15:25:49;13.18;;;4.45;;
77938;SDS011;67136;47.546;21.630;2023-05-16T15:28:53;14.10;;;4.57;;
77938;SDS011;67136;47.546;21.630;2023-05-16T15:32:02;19.33;;;3.87;;
77938;SDS011;67136;47.546;21.630;2023-05-16T15:35:06;16.67;;;4.50;;
77938;SDS011;67136;47.546;21.630;2023-05-16T15:38:09;14.93;;;3.97;;
77938;SDS011;67136;47.546;21.630;2023-05-16T15:41:14;14.00;;;3.65;;
77938;SDS011;67136;47.546;21.630;2023-05-16T15:44:37;13.80;;;4.10;;
77938;SDS011;67136;47.546;21.630;2023-05-16T15:47:41;16.70;;;4.05;;
77938;SDS011;67136;47.546;21.630;2023-05-16T15:50:44;11.95;;;3.75;;
77938;SDS011;67136;47.546;21.630;2023-05-16T15:53:47;11.32;;;3.55;;
77938;SDS011;67136;47.546;21.630;2023-05-16T15:56:54;14.40;;;4.28;;
77938;SDS011;67136;47.546;21.630;2023-05-16T15:59:57;11.57;;;3.20;;
77938;SDS011;67136;47.546;21.630;2023-05-16T16:03:03;16.37;;;3.80;;
77938;SDS011;67136;47.546;21.630;2023-05-16T16:06:08;8.68;;;3.10;;
77938;SDS011;67136;47.546;21.630;2023-05-16T16:09:11;12.77;;;3.17;;
77938;SDS011;67136;47.546;21.630;2023-05-16T16:12:16;15.82;;;3.25;;
77938;SDS011;67136;47.546;21.630;2023-05-16T16:15:20;15.03;;;3.10;;
77938;SDS011;67136;47.546;21.630;2023-05-16T16:18:22;13.80;;;3.22;;
77938;SDS011;67136;47.546;21.630;2023-05-16T16:21:28;11.10;;;3.55;;
77938;SDS011;67136;47.546;21.630;2023-05-16T16:24:30;10.27;;;3.35;;
77938;SDS011;67136;47.546;21.630;2023-05-16T16:27:33;13.80;;;4.22;;
77938;SDS011;67136;47.546;21.630;2023-05-16T16:30:36;14.63;;;3.10;;
77938;SDS011;67136;47.546;21.630;2023-05-16T16:33:39;9.05;;;2.90;;
77938;SDS011;67136;47.546;21.630;2023-05-16T16:36:44;12.93;;;2.92;;
77938;SDS011;67136;47.546;21.630;2023-05-16T16:39:46;16.62;;;4.10;;
77938;SDS011;67136;47.546;21.630;2023-05-16T16:42:49;11.68;;;2.75;;
77938;SDS011;67136;47.546;21.630;2023-05-16T16:45:51;14.63;;;2.90;;
77938;SDS011;67136;47.546;21.630;2023-05-16T16:48:58;11.40;;;3.15;;
77938;SDS011;67136;47.546;21.630;2023-05-16T16:52:00;22.87;;;2.97;;
77938;SDS011;67136;47.546;21.630;2023-05-16T16:55:04;10.43;;;3.55;;
77938;SDS011;67136;47.546;21.630;2023-05-16T16:58:14;12.63;;;3.05;;
77938;SDS011;67136;47.546;21.630;2023-05-16T17:01:16;11.43;;;2.93;;
77938;SDS011;67136;47.546;21.630;2023-05-16T17:04:22;13.50;;;3.78;;
77938;SDS011;67136;47.546;21.630;2023-05-16T17:07:25;9.77;;;3.50;;
77938;SDS011;67136;47.546;21.630;2023-05-16T17:10:27;14.52;;;3.28;;
77938;SDS011;67136;47.546;21.630;2023-05-16T17:13:31;9.88;;;3.10;;
77938;SDS011;67136;47.546;21.630;2023-05-16T17:16:35;11.83;;;4.07;;
77938;SDS011;67136;47.546;21.630;2023-05-16T17:19:43;10.85;;;2.92;;
77938;SDS011;67136;47.546;21.630;2023-05-16T17:22:50;11.70;;;3.37;;
77938;SDS011;67136;47.546;21.630;2023-05-16T17:25:59;13.80;;;4.25;;
77938;SDS011;67136;47.546;21.630;2023-05-16T17:29:02;11.35;;;3.42;;
77938;SDS011;67136;47.546;21.630;2023-05-16T17:32:08;13.57;;;3.40;;
77938;SDS011;67136;47.546;21.630;2023-05-16T17:35:10;9.20;;;3.65;;
77938;SDS011;67136;47.546;21.630;2023-05-16T17:38:13;13.70;;;3.60;;
77938;SDS011;67136;47.546;21.630;2023-05-16T17:41:16;13.00;;;3.55;;
77938;SDS011;67136;47.546;21.630;2023-05-16T17:44:19;16.98;;;3.45;;
77938;SDS011;67136;47.546;21.630;2023-05-16T17:47:25;8.93;;;3.00;;
77938;SDS011;67136;47.546;21.630;2023-05-16T17:50:28;15.02;;;3.00;;
77938;SDS011;67136;47.546;21.630;2023-05-16T17:53:31;9.75;;;3.45;;
77938;SDS011;67136;47.546;21.630;2023-05-16T17:56:34;11.35;;;2.97;;
77938;SDS011;67136;47.546;21.630;2023-05-16T17:59:36;14.77;;;4.00;;
77938;SDS011;67136;47.546;21.630;2023-05-16T18:02:39;11.60;;;3.63;;
77938;SDS011;67136;47.546;21.630;2023-05-16T18:05:42;9.15;;;3.60;;
77938;SDS011;67136;47.546;21.630;2023-05-16T18:08:48;15.68;;;3.60;;
77938;SDS011;67136;47.546;21.630;2023-05-16T18:11:51;14.32;;;3.92;;
77938;SDS011;67136;47.546;21.630;2023-05-16T18:14:54;12.07;;;3.15;;
77938;SDS011;67136;47.546;21.630;2023-05-16T18:17:56;13.77;;;3.50;;
77938;SDS011;67136;47.546;21.630;2023-05-16T18:21:13;18.95;;;3.45;;
77938;SDS011;67136;47.546;21.630;2023-05-16T18:24:16;11.68;;;4.28;;
77938;SDS011;67136;47.546;21.630;2023-05-16T18:27:20;12.75;;;3.90;;
77938;SDS011;67136;47.546;21.630;2023-05-16T18:30:24;14.02;;;3.67;;
77938;SDS011;67136;47.546;21.630;2023-05-16T18:33:27;14.27;;;3.50;;
77938;SDS011;67136;47.546;21.630;2023-05-16T18:36:31;14.50;;;3.62;;
77938;SDS011;67136;47.546;21.630;2023-05-16T18:39:36;22.50;;;4.15;;
77938;SDS011;67136;47.546;21.630;2023-05-16T18:42:44;17.23;;;3.83;;
77938;SDS011;67136;47.546;21.630;2023-05-16T18:45:47;12.13;;;3.72;;
77938;SDS011;67136;47.546;21.630;2023-05-16T18:48:50;13.27;;;3.30;;
77938;SDS011;67136;47.546;21.630;2023-05-16T18:51:53;16.85;;;3.87;;
77938;SDS011;67136;47.546;21.630;2023-05-16T18:54:56;12.57;;;3.53;;
77938;SDS011;67136;47.546;21.630;2023-05-16T18:57:59;21.60;;;3.80;;
77938;SDS011;67136;47.546;21.630;2023-05-16T19:01:03;17.37;;;4.22;;
77938;SDS011;67136;47.546;21.630;2023-05-16T19:04:08;14.47;;;3.47;;
77938;SDS011;67136;47.546;21.630;2023-05-16T19:07:10;15.15;;;4.25;;
77938;SDS011;67136;47.546;21.630;2023-05-16T19:10:13;14.80;;;3.70;;
77938;SDS011;67136;47.546;21.630;2023-05-16T19:13:16;14.30;;;3.58;;
77938;SDS011;67136;47.546;21.630;2023-05-16T19:16:19;13.62;;;3.87;;
77938;SDS011;67136;47.546;21.630;2023-05-16T19:19:22;16.63;;;3.70;;